Time;durP1;ratioP1;P1;durP2;ratioP2;P2;SDS_P1;SDS_P2;PMS_P1;PMS_P2;Temp;Humidity;BMP_temperature;BMP_pressure;BME280_temperature;BME280_humidity;BME280_pressure;Samples;Min_cycle;Max_cycle;Signal;HPM_P1;HPM_P2
2021/05/29 00:01:58;;;;;;;8.03;6.73;;;;;;;10.55;76.97;101641.13;5103723;28;20211;-79
2021/05/29 00:04:24;;;;;;;12.63;7.53;;;;;;;10.53;76.93;101642.16;5104941;28;20209;-79
2021/05/29 00:06:50;;;;;;;14.43;7.80;;;;;;;10.49;77.04;101644.09;5104575;28;20276;-79
2021/05/29 00:09:16;;;;;;;9.40;6.90;;;;;;;10.48;76.71;101638.81;5104206;28;20271;-80
2021/05/29 00:11:42;;;;;;;9.20;6.90;;;;;;;10.46;76.94;101644.22;5095205;28;20204;-79
2021/05/29 00:14:08;;;;;;;9.60;6.57;;;;;;;10.46;77.26;101646.03;5097222;28;20196;-79
2021/05/29 00:16:35;;;;;;;13.00;7.57;;;;;;;10.44;77.41;101646.94;5098261;28;20200;-78
2021/05/29 00:19:02;;;;;;;11.03;7.77;;;;;;;10.44;77.07;101644.28;5094571;28;20229;-81
2021/05/29 00:21:28;;;;;;;9.03;7.13;;;;;;;10.44;77.16;101635.44;5085734;28;20258;-80
2021/05/29 00:23:54;;;;;;;12.53;7.67;;;;;;;10.41;77.22;101635.56;5098720;28;20200;-78
2021/05/29 00:26:20;;;;;;;10.23;7.43;;;;;;;10.37;77.27;101629.56;5089383;28;20220;-80
2021/05/29 00:28:46;;;;;;;11.43;7.70;;;;;;;10.34;77.22;101629.69;5088425;28;20227;-81
2021/05/29 00:31:12;;;;;;;13.07;7.90;;;;;;;10.31;76.93;101627.16;5096447;28;20210;-79
2021/05/29 00:33:38;;;;;;;11.97;7.57;;;;;;;10.29;77.45;101623.72;5096192;28;20204;-79
2021/05/29 00:36:05;;;;;;;10.43;7.93;;;;;;;10.26;77.06;101629.16;5093430;28;20210;-80
2021/05/29 00:38:31;;;;;;;11.50;7.93;;;;;;;10.26;77.38;101631.84;5091463;28;20307;-80
2021/05/29 00:40:58;;;;;;;12.57;8.57;;;;;;;10.25;77.33;101632.78;5088232;28;20228;-79
2021/05/29 00:43:24;;;;;;;10.03;8.17;;;;;;;10.25;76.96;101632.78;5099833;28;20627;-81
2021/05/29 00:45:50;;;;;;;9.97;7.53;;;;;;;10.25;77.31;101631.91;5091369;28;20201;-79
2021/05/29 00:48:16;;;;;;;11.50;8.17;;;;;;;10.24;77.49;101628.38;5083546;28;20220;-78
2021/05/29 00:50:48;;;;;;;12.47;9.07;;;;;;;10.23;77.64;101631.09;5083573;28;20208;-80
2021/05/29 00:53:16;;;;;;;10.80;8.47;;;;;;;10.21;77.21;101631.19;5091427;28;20237;-79
2021/05/29 00:55:42;;;;;;;11.60;8.13;;;;;;;10.21;77.13;101635.66;5081057;28;20216;-80
2021/05/29 00:58:08;;;;;;;13.67;9.53;;;;;;;10.19;77.66;101635.72;5097387;28;20228;-79
2021/05/29 01:00:34;;;;;;;12.83;9.60;;;;;;;10.19;77.78;101638.41;5085532;28;20716;-78
2021/05/29 01:03:00;;;;;;;13.37;10.40;;;;;;;10.18;77.45;101638.44;5094482;22;20232;-68
2021/05/29 01:05:26;;;;;;;10.57;8.67;;;;;;;10.16;77.50;101649.16;5048339;28;20212;-69
2021/05/29 01:07:54;;;;;;;15.10;9.80;;;;;;;10.16;77.60;101649.16;5050044;28;20206;-69
2021/05/29 01:10:23;;;;;;;13.93;10.10;;;;;;;10.13;77.42;101643.97;5050713;28;20615;-68
2021/05/29 01:12:50;;;;;;;12.80;9.27;;;;;;;10.14;78.11;101647.47;5042914;28;20210;-68
2021/05/29 01:15:18;;;;;;;11.97;9.20;;;;;;;10.13;77.72;101651.94;5050041;28;20671;-68
2021/05/29 01:17:45;;;;;;;16.27;9.30;;;;;;;10.10;77.56;101644.97;5050633;28;20885;-69
2021/05/29 01:20:12;;;;;;;12.03;9.70;;;;;;;10.10;78.25;101644.09;5049821;28;20226;-69
2021/05/29 01:22:43;;;;;;;12.17;9.80;;;;;;;10.09;78.23;101642.38;5047975;28;20205;-69
2021/05/29 01:25:21;;;;;;;15.43;9.80;;;;;;;10.07;77.99;101647.75;5049482;28;20682;-69
2021/05/29 01:27:55;;;;;;;12.07;9.57;;;;;;;10.08;78.14;101645.94;5052167;28;20198;-68
2021/05/29 01:30:22;;;;;;;10.83;9.53;;;;;;;10.08;78.33;101654.81;5049711;28;20254;-69
2021/05/29 01:32:48;;;;;;;13.30;9.70;;;;;;;10.08;78.07;101652.16;5041387;28;20284;-68
2021/05/29 01:35:14;;;;;;;11.77;9.67;;;;;;;10.09;78.25;101650.34;5049168;28;20205;-68
2021/05/29 01:37:42;;;;;;;13.77;10.10;;;;;;;10.09;78.86;101653.88;5049826;28;20213;-68
2021/05/29 01:40:09;;;;;;;17.20;10.80;;;;;;;10.10;78.20;101658.25;5049991;28;20271;-68
2021/05/29 01:42:37;;;;;;;15.63;10.40;;;;;;;10.09;78.68;101659.19;5048380;28;20295;-68
2021/05/29 01:45:04;;;;;;;18.20;12.33;;;;;;;10.10;78.20;101662.72;5050052;28;20212;-69
2021/05/29 01:47:31;;;;;;;15.47;12.07;;;;;;;10.09;78.43;101667.19;5050137;28;20209;-69
2021/05/29 01:49:57;;;;;;;17.17;12.07;;;;;;;10.08;78.34;101662.78;5049426;28;20225;-68
2021/05/29 01:52:59;;;;;;;16.43;11.63;;;;;;;10.08;78.54;101652.16;5048046;28;20209;-69
2021/05/29 01:55:29;;;;;;;19.13;12.37;;;;;;;10.08;78.72;101652.16;5037391;28;20209;-68
2021/05/29 01:57:56;;;;;;;16.03;11.93;;;;;;;10.08;78.83;101645.94;5045691;28;20599;-69
2021/05/29 02:00:24;;;;;;;16.87;12.20;;;;;;;10.08;79.12;101646.81;5047877;28;20229;-68
2021/05/29 02:02:51;;;;;;;17.47;12.20;;;;;;;10.07;78.71;101645.09;5047417;28;20308;-69
2021/05/29 02:05:20;;;;;;;18.03;12.37;;;;;;;10.08;79.19;101644.16;5049784;28;20250;-69
2021/05/29 02:07:47;;;;;;;19.60;13.17;;;;;;;10.09;79.38;101653.00;5049272;28;20656;-69
2021/05/29 02:10:15;;;;;;;16.73;11.87;;;;;;;10.09;78.96;101651.22;5048534;28;20282;-69
2021/05/29 02:12:45;;;;;;;20.17;12.63;;;;;;;10.10;78.99;101654.75;5048076;28;20207;-69
2021/05/29 02:15:14;;;;;;;19.47;12.40;;;;;;;10.11;79.18;101656.47;5048895;28;20212;-69
2021/05/29 02:17:40;;;;;;;19.70;12.33;;;;;;;10.12;79.68;101657.34;5049126;28;20216;-69
2021/05/29 02:20:08;;;;;;;20.40;12.90;;;;;;;10.12;79.27;101660.84;5049773;28;20227;-69
2021/05/29 02:22:34;;;;;;;17.73;11.70;;;;;;;10.13;79.44;101657.25;5046063;28;20204;-69
2021/05/29 02:25:01;;;;;;;16.37;12.80;;;;;;;10.12;79.60;101652.88;5049015;28;20671;-69
2021/05/29 02:27:27;;;;;;;16.57;12.67;;;;;;;10.16;79.27;101659.78;5048540;28;20206;-69
2021/05/29 02:29:54;;;;;;;18.90;12.27;;;;;;;10.18;79.12;101662.38;5049519;28;20229;-69
2021/05/29 02:32:21;;;;;;;18.97;12.37;;;;;;;10.19;79.02;101659.69;5049140;28;20278;-69
2021/05/29 02:34:47;;;;;;;18.50;12.60;;;;;;;10.18;78.95;101663.25;5048185;28;20202;-69
2021/05/29 02:37:13;;;;;;;16.80;11.77;;;;;;;10.17;78.99;101661.53;5049069;28;20210;-69
2021/05/29 02:39:39;;;;;;;16.97;11.93;;;;;;;10.17;79.25;101658.88;5049074;28;20247;-67
2021/05/29 02:42:05;;;;;;;17.67;12.17;;;;;;;10.17;79.75;101658.88;5048514;28;20209;-67
2021/05/29 02:44:31;;;;;;;16.93;12.03;;;;;;;10.17;79.88;101660.66;5048630;28;20227;-68
2021/05/29 02:46:59;;;;;;;18.13;12.57;;;;;;;10.18;79.68;101667.72;5049402;28;20201;-69
2021/05/29 02:49:25;;;;;;;16.83;11.40;;;;;;;10.18;79.41;101665.91;5049602;28;20248;-69
2021/05/29 02:51:51;;;;;;;18.50;12.77;;;;;;;10.19;79.65;101669.47;5048885;28;20545;-70
2021/05/29 02:54:18;;;;;;;18.03;12.43;;;;;;;10.20;79.69;101671.22;5049992;28;20698;-69
2021/05/29 02:56:44;;;;;;;15.57;11.77;;;;;;;10.19;79.64;101669.47;5047775;28;20228;-69
2021/05/29 02:59:10;;;;;;;19.23;11.40;;;;;;;10.19;79.38;101666.81;5048213;28;20270;-69
2021/05/29 03:01:36;;;;;;;18.40;12.30;;;;;;;10.19;80.06;101669.47;5047390;28;20295;-68
2021/05/29 03:04:03;;;;;;;18.50;12.10;;;;;;;10.19;79.57;101669.47;5048373;28;20213;-69
2021/05/29 03:06:29;;;;;;;15.53;12.00;;;;;;;10.19;79.80;101673.00;5048840;28;20212;-69
2021/05/29 03:08:57;;;;;;;15.60;11.27;;;;;;;10.19;79.33;101670.34;5047235;28;20225;-68
2021/05/29 03:11:23;;;;;;;20.60;12.43;;;;;;;10.17;79.46;101666.84;5041648;28;20199;-70
2021/05/29 03:13:49;;;;;;;18.53;11.97;;;;;;;10.18;79.78;101673.03;5041318;28;20248;-69
2021/05/29 03:16:16;;;;;;;15.80;11.33;;;;;;;10.19;79.92;101674.81;5046981;28;20214;-69
2021/05/29 03:18:42;;;;;;;15.43;12.07;;;;;;;10.20;79.39;101676.53;5048281;28;20233;-69
2021/05/29 03:21:08;;;;;;;16.63;12.07;;;;;;;10.19;79.43;101690.78;5047369;28;20232;-69
2021/05/29 03:23:34;;;;;;;17.70;12.17;;;;;;;10.19;79.41;101688.97;5049303;28;20213;-68
2021/05/29 03:26:00;;;;;;;20.13;11.90;;;;;;;10.19;79.80;101680.13;5052369;28;20271;-69
2021/05/29 03:28:26;;;;;;;17.87;12.33;;;;;;;10.19;79.84;101688.13;5051937;28;20212;-67
2021/05/29 03:30:53;;;;;;;17.77;12.57;;;;;;;10.18;79.68;101686.34;5052421;28;20208;-67
2021/05/29 03:33:19;;;;;;;19.40;12.67;;;;;;;10.19;79.62;101690.78;5050996;28;20686;-69
2021/05/29 03:35:45;;;;;;;19.83;12.83;;;;;;;10.18;79.81;101684.56;5052173;28;20578;-69
2021/05/29 03:38:14;;;;;;;14.87;11.93;;;;;;;10.19;79.56;101688.97;5051875;28;20217;-68
2021/05/29 03:40:40;;;;;;;18.27;12.13;;;;;;;10.19;79.43;101691.63;5052096;28;20613;-68
2021/05/29 03:43:06;;;;;;;19.10;12.40;;;;;;;10.19;79.89;101686.31;5051290;28;20204;-68
2021/05/29 03:45:32;;;;;;;17.27;11.80;;;;;;;10.19;79.43;101685.44;5051535;28;20671;-69
2021/05/29 03:47:58;;;;;;;17.87;12.40;;;;;;;10.19;79.53;101694.31;5051411;28;20256;-69
2021/05/29 03:50:27;;;;;;;15.00;12.17;;;;;;;10.20;79.60;101685.38;5051703;28;20225;-69
2021/05/29 03:52:54;;;;;;;18.47;13.27;;;;;;;10.22;79.88;101685.28;5053148;28;20205;-69
2021/05/29 03:55:22;;;;;;;19.10;13.20;;;;;;;10.22;79.69;101694.13;5054229;28;20630;-69
2021/05/29 03:57:49;;;;;;;17.33;13.03;;;;;;;10.23;79.45;101695.00;5054010;28;20209;-69
2021/05/29 04:00:19;;;;;;;18.10;13.07;;;;;;;10.22;79.80;101691.47;5051405;28;20288;-69
2021/05/29 04:02:46;;;;;;;16.30;10.60;;;;;;;10.18;79.97;101692.53;5050529;28;20205;-68
2021/05/29 04:05:13;;;;;;;15.13;9.97;;;;;;;10.15;79.44;101707.78;5051610;28;20200;-69
2021/05/29 04:07:39;;;;;;;15.20;10.23;;;;;;;10.10;79.69;101706.19;5051704;28;20292;-69
2021/05/29 04:10:07;;;;;;;12.73;9.27;;;;;;;10.09;79.91;101709.78;5051044;28;20217;-69
2021/05/29 04:12:34;;;;;;;13.67;9.33;;;;;;;10.09;79.41;101716.88;5051318;28;20578;-69
2021/05/29 04:15:00;;;;;;;14.73;8.97;;;;;;;10.03;79.39;101712.69;5052045;28;20252;-69
2021/05/29 04:17:26;;;;;;;14.13;9.30;;;;;;;10.01;79.34;101713.72;5052111;28;20251;-68
2021/05/29 04:19:52;;;;;;;12.30;8.87;;;;;;;9.97;78.65;101712.13;5051376;28;20229;-69
2021/05/29 04:22:19;;;;;;;11.60;8.60;;;;;;;9.97;78.63;101712.13;5050172;28;20276;-68
2021/05/29 04:24:45;;;;;;;15.17;9.07;;;;;;;9.95;78.55;101709.53;5051166;28;20202;-68
2021/05/29 04:27:11;;;;;;;12.37;8.73;;;;;;;9.94;78.77;101715.78;5051883;28;20210;-68
2021/05/29 04:29:38;;;;;;;15.47;9.43;;;;;;;9.93;78.65;101711.38;5051493;28;20715;-69
2021/05/29 04:32:05;;;;;;;13.63;9.30;;;;;;;9.92;78.46;101709.66;5050163;28;20473;-69
2021/05/29 04:34:31;;;;;;;13.53;9.60;;;;;;;9.92;78.42;101716.78;5051088;28;20683;-69
2021/05/29 04:36:57;;;;;;;15.53;9.47;;;;;;;9.92;78.42;101719.44;5051171;28;20250;-69
2021/05/29 04:39:23;;;;;;;12.97;9.90;;;;;;;9.93;78.45;101705.19;5051078;28;20228;-68
2021/05/29 04:41:49;;;;;;;12.57;8.97;;;;;;;9.93;78.42;101713.19;5050246;28;20412;-69
2021/05/29 04:44:15;;;;;;;15.63;9.20;;;;;;;9.95;78.54;101711.31;5051732;28;20198;-69
2021/05/29 04:46:50;;;;;;;14.33;9.57;;;;;;;9.94;78.25;101712.25;5051072;28;20206;-68
2021/05/29 04:49:17;;;;;;;12.30;8.90;;;;;;;9.92;77.98;101707.00;5051588;28;20225;-68
2021/05/29 04:51:43;;;;;;;14.80;9.53;;;;;;;9.92;77.51;101711.44;5050187;28;20213;-68
2021/05/29 04:54:09;;;;;;;12.37;9.17;;;;;;;9.90;77.70;101716.84;5056642;28;20205;-69
2021/05/29 04:56:35;;;;;;;12.67;8.97;;;;;;;9.90;77.41;101708.84;5051023;28;20216;-68
2021/05/29 04:59:02;;;;;;;13.00;9.33;;;;;;;9.91;77.59;101715.03;5050692;28;20225;-69
2021/05/29 05:01:30;;;;;;;11.67;8.87;;;;;;;9.92;77.25;101722.09;5050823;28;20225;-67
2021/05/29 05:03:57;;;;;;;13.47;9.40;;;;;;;9.94;76.74;101728.22;5049576;28;20216;-69
2021/05/29 05:06:23;;;;;;;11.87;9.27;;;;;;;9.95;77.32;101727.28;5050812;28;20232;-67
2021/05/29 05:08:50;;;;;;;14.83;8.47;;;;;;;9.97;77.04;101717.44;5050715;28;20228;-69
2021/05/29 05:11:16;;;;;;;15.60;9.63;;;;;;;9.99;76.55;101724.44;5050440;28;20208;-69
2021/05/29 05:13:42;;;;;;;11.17;8.40;;;;;;;10.01;76.55;101719.03;5050235;28;20679;-69
2021/05/29 05:16:08;;;;;;;11.87;7.70;;;;;;;10.01;76.51;101719.03;5049736;28;20675;-68
2021/05/29 05:18:34;;;;;;;12.40;7.90;;;;;;;10.03;76.90;101727.84;5050707;28;20238;-67
2021/05/29 05:21:01;;;;;;;11.10;7.57;;;;;;;10.03;76.52;101723.34;5051065;28;20240;-67
2021/05/29 05:23:27;;;;;;;11.27;7.73;;;;;;;10.05;76.20;101732.13;5048567;28;21021;-69
2021/05/29 05:25:53;;;;;;;12.87;7.57;;;;;;;10.08;76.35;101731.13;5049648;28;20206;-67
2021/05/29 05:28:22;;;;;;;12.20;7.93;;;;;;;10.10;76.72;101732.78;5049833;28;20205;-68
2021/05/29 05:30:48;;;;;;;12.60;8.20;;;;;;;10.16;76.13;101738.78;5045883;28;20664;-69
2021/05/29 05:33:15;;;;;;;9.87;6.70;;;;;;;10.17;76.12;101736.06;5048927;28;20425;-69
2021/05/29 05:35:43;;;;;;;9.27;6.77;;;;;;;10.19;76.06;101730.72;5049108;28;20581;-68
2021/05/29 05:38:10;;;;;;;12.07;8.43;;;;;;;10.20;75.88;101740.44;5049644;28;20607;-69
2021/05/29 05:40:36;;;;;;;11.00;7.93;;;;;;;10.21;76.38;101737.66;5048399;28;20324;-69
2021/05/29 05:43:02;;;;;;;13.33;8.53;;;;;;;10.24;76.34;101744.66;5046853;28;20205;-69
2021/05/29 05:45:28;;;;;;;11.90;8.13;;;;;;;10.23;75.83;101749.13;5047556;28;20212;-68
2021/05/29 05:47:54;;;;;;;11.63;7.33;;;;;;;10.24;76.05;101750.84;5050129;28;20207;-68
2021/05/29 05:50:20;;;;;;;9.73;7.07;;;;;;;10.22;75.83;101744.72;5048815;28;20602;-69
2021/05/29 05:52:46;;;;;;;13.20;8.37;;;;;;;10.23;75.73;101746.44;5050748;28;20202;-68
2021/05/29 05:55:13;;;;;;;10.03;6.97;;;;;;;10.24;75.26;101756.16;5050381;28;20621;-68
2021/05/29 05:57:39;;;;;;;10.40;7.97;;;;;;;10.23;75.29;101751.78;5049970;28;20201;-68
2021/05/29 06:00:08;;;;;;;11.37;7.83;;;;;;;10.24;75.02;101760.63;5047230;28;20228;-69
2021/05/29 06:02:34;;;;;;;10.93;7.60;;;;;;;10.25;75.38;101757.91;5048553;28;20228;-68
2021/05/29 06:05:00;;;;;;;12.60;7.50;;;;;;;10.25;75.63;101762.34;5049096;28;20694;-68
2021/05/29 06:07:26;;;;;;;11.50;8.03;;;;;;;10.25;75.39;101768.56;5049581;28;20684;-68
2021/05/29 06:09:52;;;;;;;10.63;7.60;;;;;;;10.25;74.95;101765.03;5049833;28;20222;-67
2021/05/29 06:12:19;;;;;;;11.53;7.07;;;;;;;10.24;75.27;101766.81;5049183;28;20213;-68
2021/05/29 06:20:14;;;;;;;12.93;7.70;;;;;;;10.28;74.97;101765.75;5039289;28;20725;-69
2021/05/29 06:22:40;;;;;;;11.10;7.67;;;;;;;10.33;74.94;101776.22;5043362;28;20289;-68
2021/05/29 06:25:08;;;;;;;10.40;7.00;;;;;;;10.33;75.15;101779.75;5047917;28;20201;-69
2021/05/29 06:27:36;;;;;;;8.67;6.57;;;;;;;10.33;74.71;101774.41;5048785;28;20307;-69
2021/05/29 06:30:04;;;;;;;10.00;7.20;;;;;;;10.32;75.00;101779.81;5047555;28;20217;-68
2021/05/29 06:32:30;;;;;;;10.97;7.13;;;;;;;10.32;75.18;101788.66;5044303;28;20598;-69
2021/05/29 06:34:56;;;;;;;8.70;6.30;;;;;;;10.35;74.70;101787.66;5049431;28;20205;-66
2021/05/29 06:37:22;;;;;;;10.00;7.10;;;;;;;10.38;74.66;101785.75;5045591;28;20213;-66
2021/05/29 06:39:48;;;;;;;13.57;6.73;;;;;;;10.38;74.92;101785.75;5046245;28;20707;-69
2021/05/29 06:42:14;;;;;;;10.47;7.03;;;;;;;10.39;75.08;101781.28;5046041;28;20236;-69
2021/05/29 06:44:41;;;;;;;9.57;6.43;;;;;;;10.40;74.93;101786.50;5043505;28;20691;-68
2021/05/29 06:47:08;;;;;;;10.30;6.83;;;;;;;10.41;74.34;101790.03;5047912;28;20206;-69
2021/05/29 06:49:36;;;;;;;10.60;7.37;;;;;;;10.41;74.60;101796.22;5042485;28;20649;-69
2021/05/29 06:52:05;;;;;;;12.37;7.13;;;;;;;10.45;74.52;101796.97;5046370;28;20197;-68
2021/05/29 06:54:43;;;;;;;11.20;7.77;;;;;;;10.47;74.23;101787.09;5046366;28;20667;-69
2021/05/29 06:59:54;;;;;;;13.27;7.93;;;;;;;10.51;73.94;101796.69;5044012;28;20232;-66
2021/05/29 07:02:20;;;;;;;10.73;7.13;;;;;;;10.51;73.99;101802.03;5053082;28;20201;-67
2021/05/29 07:04:46;;;;;;;12.43;7.50;;;;;;;10.54;73.79;101798.38;5073502;22;20258;-78
2021/05/29 07:07:15;;;;;;;14.73;7.53;;;;;;;10.53;73.61;101802.81;5068199;28;20358;-79
2021/05/29 07:09:41;;;;;;;9.83;7.50;;;;;;;10.54;73.73;101796.56;5073049;28;20203;-79
2021/05/29 07:12:08;;;;;;;11.33;7.77;;;;;;;10.56;73.85;101799.16;5074216;28;20715;-78
2021/05/29 07:14:34;;;;;;;11.17;7.80;;;;;;;10.57;73.75;101800.91;5077235;28;20597;-78
2021/05/29 07:17:03;;;;;;;11.10;7.60;;;;;;;10.57;73.44;101809.72;5067512;28;20212;-78
2021/05/29 07:19:29;;;;;;;11.90;7.63;;;;;;;10.55;73.04;101806.28;5066575;28;20717;-78
2021/05/29 07:21:55;;;;;;;12.87;8.20;;;;;;;10.56;73.40;101805.34;5073169;28;20232;-78
2021/05/29 07:24:21;;;;;;;10.93;7.93;;;;;;;10.57;73.17;101803.56;5074075;28;20221;-78
2021/05/29 07:26:48;;;;;;;10.67;8.30;;;;;;;10.61;73.54;101798.00;5076643;28;20203;-77
2021/05/29 07:29:15;;;;;;;12.30;8.50;;;;;;;10.65;73.19;101806.72;5070595;28;20197;-77
2021/05/29 07:31:41;;;;;;;9.97;7.60;;;;;;;10.67;73.37;101812.84;5075841;28;20389;-78
2021/05/29 07:34:08;;;;;;;10.50;7.63;;;;;;;10.71;73.31;101814.44;5063427;28;20229;-77
2021/05/29 07:36:34;;;;;;;10.43;8.20;;;;;;;10.75;72.97;101808.03;5066495;28;20219;-78
2021/05/29 07:39:01;;;;;;;9.97;7.60;;;;;;;10.78;72.96;101821.22;5069604;28;20201;-78
2021/05/29 07:41:27;;;;;;;11.80;8.50;;;;;;;10.81;72.77;101818.41;5068513;28;20687;-78
2021/05/29 07:43:53;;;;;;;11.37;7.73;;;;;;;10.83;72.79;101816.53;5075172;28;20224;-78
2021/05/29 07:46:19;;;;;;;10.57;7.93;;;;;;;10.84;72.77;101817.41;5062270;28;20208;-77
2021/05/29 07:48:46;;;;;;;11.63;8.03;;;;;;;10.84;72.19;101812.09;5072542;28;20215;-77
2021/05/29 07:51:15;;;;;;;10.13;8.67;;;;;;;10.84;72.38;101810.28;5068558;28;20209;-78
2021/05/29 07:53:42;;;;;;;10.47;8.37;;;;;;;10.85;72.43;101816.47;5068143;28;20712;-78
2021/05/29 07:56:10;;;;;;;11.87;8.10;;;;;;;10.86;72.20;101812.88;5066646;28;20204;-78
2021/05/29 07:58:40;;;;;;;11.83;8.00;;;;;;;10.88;72.19;101819.88;5069006;28;20208;-78
2021/05/29 08:01:06;;;;;;;10.53;8.10;;;;;;;10.93;72.06;101817.84;5058655;28;20225;-77
2021/05/29 08:03:33;;;;;;;12.50;9.07;;;;;;;10.97;72.01;101819.44;5063288;28;20236;-77
2021/05/29 08:06:02;;;;;;;12.07;8.43;;;;;;;10.99;71.61;101816.69;5072394;28;20574;-78
2021/05/29 08:08:29;;;;;;;12.10;9.37;;;;;;;11.03;71.68;101829.81;5064154;28;20196;-79
2021/05/29 08:10:57;;;;;;;13.63;10.93;;;;;;;11.07;71.79;101828.75;5073640;28;20209;-78
2021/05/29 08:13:23;;;;;;;13.07;11.23;;;;;;;11.09;71.48;101829.56;5072141;28;20228;-77
2021/05/29 08:15:50;;;;;;;15.60;12.27;;;;;;;11.11;71.36;101835.66;5065565;28;20205;-78
2021/05/29 08:18:17;;;;;;;15.17;12.03;;;;;;;11.13;71.27;101841.78;5065101;28;20641;-78
2021/05/29 08:20:44;;;;;;;15.10;11.70;;;;;;;11.14;71.00;101835.50;5064706;28;20230;-78
2021/05/29 08:23:10;;;;;;;13.73;10.80;;;;;;;11.19;71.05;101842.44;5065134;28;20205;-79
2021/05/29 08:25:37;;;;;;;14.07;10.80;;;;;;;11.22;71.24;101853.81;5070589;28;20653;-78
2021/05/29 08:28:04;;;;;;;15.20;11.73;;;;;;;11.27;71.14;101848.28;5065330;28;20209;-79
2021/05/29 08:30:30;;;;;;;14.37;10.63;;;;;;;11.28;70.98;101855.34;5065658;28;20208;-79
2021/05/29 08:32:56;;;;;;;12.97;10.17;;;;;;;11.27;70.80;101853.63;5067801;28;20293;-78
2021/05/29 08:35:22;;;;;;;14.80;9.97;;;;;;;11.28;71.04;101850.00;5065083;28;20236;-77
2021/05/29 08:37:48;;;;;;;14.70;9.37;;;;;;;11.30;70.94;101854.31;5068601;28;20205;-78
2021/05/29 08:40:17;;;;;;;14.77;10.07;;;;;;;11.34;70.74;101849.72;5064652;28;20576;-78
2021/05/29 08:42:46;;;;;;;14.60;9.90;;;;;;;11.37;71.19;101855.75;5060421;28;20202;-79
2021/05/29 08:45:14;;;;;;;11.97;10.40;;;;;;;11.40;70.81;101860.97;5066172;28;20225;-78
2021/05/29 08:47:40;;;;;;;12.57;9.70;;;;;;;11.41;70.87;101856.50;5063458;28;20248;-78
2021/05/29 08:50:09;;;;;;;11.03;8.97;;;;;;;11.44;70.81;101857.22;5064425;28;20194;-77
2021/05/29 08:52:37;;;;;;;11.13;8.70;;;;;;;11.47;70.64;101848.19;5067602;28;20578;-78
2021/05/29 08:55:04;;;;;;;14.90;8.77;;;;;;;11.50;70.51;101858.72;5069360;28;20749;-78
2021/05/29 08:57:30;;;;;;;15.60;10.70;;;;;;;11.52;70.53;101856.84;5073744;28;20210;-78
2021/05/29 08:59:57;;;;;;;19.27;12.17;;;;;;;11.53;70.58;101860.38;5073310;28;20224;-77
2021/05/29 09:02:23;;;;;;;16.37;12.30;;;;;;;11.55;70.63;101864.69;5067914;28;20210;-77
2021/05/29 09:05:06;;;;;;;18.37;12.90;;;;;;;11.60;70.81;101861.81;5071995;28;20233;-78
2021/05/29 09:07:32;;;;;;;14.73;11.37;;;;;;;11.64;70.73;101864.25;5057210;28;20187;-78
2021/05/29 09:10:15;;;;;;;15.17;11.13;;;;;;;11.67;70.74;101861.41;5062635;28;20201;-77
2021/05/29 09:13:03;;;;;;;15.43;11.90;;;;;;;11.69;70.72;101856.88;5055596;28;20209;-77
2021/05/29 09:15:48;;;;;;;14.83;10.43;;;;;;;11.71;70.49;101860.34;5086686;28;20265;-78
2021/05/29 09:18:37;;;;;;;16.33;11.50;;;;;;;11.73;70.56;101862.94;5075392;28;20655;-78
2021/05/29 09:21:30;;;;;;;15.40;10.70;;;;;;;11.74;70.70;101864.66;5075409;28;20211;-78
2021/05/29 09:23:59;;;;;;;17.77;11.13;;;;;;;11.78;70.49;101872.50;5077621;28;20217;-78
2021/05/29 09:26:44;;;;;;;15.40;11.43;;;;;;;11.83;70.67;101865.09;5076156;28;20602;-77
2021/05/29 09:29:19;;;;;;;15.20;10.67;;;;;;;11.87;70.49;101859.63;5075268;28;20659;-77
2021/05/29 09:32:01;;;;;;;21.70;13.43;;;;;;;11.92;70.46;101862.94;5075220;28;20189;-77
2021/05/29 09:34:37;;;;;;;16.47;11.03;;;;;;;11.94;70.25;101866.41;5075112;28;20736;-78
2021/05/29 09:37:05;;;;;;;15.40;11.30;;;;;;;11.96;70.34;101870.72;5075443;28;20288;-78
2021/05/29 09:39:32;;;;;;;16.00;11.63;;;;;;;11.97;69.97;101869.78;5074649;28;20297;-77
2021/05/29 09:41:59;;;;;;;17.83;11.73;;;;;;;11.98;70.11;101871.50;5074663;28;20237;-78
2021/05/29 09:44:27;;;;;;;11.53;10.03;;;;;;;11.99;70.00;101872.38;5074714;28;20274;-77
2021/05/29 09:46:55;;;;;;;15.80;11.53;;;;;;;12.00;69.97;101872.28;5074627;28;20693;-78
2021/05/29 09:49:25;;;;;;;13.33;10.10;;;;;;;12.02;69.88;101864.19;5074929;28;20213;-77
2021/05/29 09:51:51;;;;;;;15.53;10.67;;;;;;;12.02;69.59;101881.06;5075381;28;20273;-78
2021/05/29 09:54:17;;;;;;;12.97;9.90;;;;;;;12.01;69.72;101868.66;5075943;28;20256;-77
2021/05/29 09:56:45;;;;;;;13.73;10.00;;;;;;;12.03;69.63;101879.28;5076079;28;20578;-78
2021/05/29 09:59:13;;;;;;;13.53;10.60;;;;;;;12.02;69.76;101883.75;5076321;28;20253;-79
2021/05/29 10:01:45;;;;;;;16.70;11.30;;;;;;;12.03;69.98;101884.59;5076438;28;20227;-78
2021/05/29 10:04:13;;;;;;;16.43;11.17;;;;;;;12.05;70.03;101893.41;5076198;28;20241;-79
2021/05/29 10:06:41;;;;;;;16.30;11.53;;;;;;;12.06;70.07;101881.78;5076533;28;20684;-78
2021/05/29 10:09:10;;;;;;;20.23;11.73;;;;;;;12.08;70.47;101887.94;5076295;28;20253;-79
2021/05/29 10:11:37;;;;;;;17.33;11.30;;;;;;;12.06;70.10;101882.66;5075954;28;20205;-79
2021/05/29 10:14:07;;;;;;;17.77;11.27;;;;;;;11.99;70.07;101894.59;5076229;28;20236;-78
2021/05/29 10:16:34;;;;;;;18.33;11.70;;;;;;;11.95;70.26;101898.34;5076905;28;20258;-79
2021/05/29 10:19:02;;;;;;;14.83;11.30;;;;;;;11.91;70.14;101896.78;5076868;28;20206;-78
2021/05/29 10:21:32;;;;;;;14.80;10.73;;;;;;;11.88;70.17;101904.06;5077116;28;20225;-79
2021/05/29 10:24:01;;;;;;;14.43;10.73;;;;;;;11.83;70.19;101902.47;5077864;28;20312;-79
2021/05/29 10:26:28;;;;;;;16.30;11.20;;;;;;;11.82;70.36;101908.75;5076568;28;20274;-78
2021/05/29 10:28:57;;;;;;;39.73;13.23;;;;;;;11.82;70.34;101914.09;5075770;28;20232;-78
2021/05/29 10:31:28;;;;;;;14.53;10.50;;;;;;;11.82;70.16;101916.75;5078876;28;20206;-78
2021/05/29 10:33:54;;;;;;;17.00;11.33;;;;;;;11.81;70.23;101909.72;5080722;28;20213;-79
2021/05/29 10:36:42;;;;;;;13.07;10.43;;;;;;;11.83;70.05;101917.63;5080489;28;20287;-79
2021/05/29 10:39:10;;;;;;;16.50;10.57;;;;;;;11.84;69.94;101914.00;5068457;28;20200;-78
2021/05/29 10:41:58;;;;;;;13.47;9.07;;;;;;;11.86;69.85;101921.94;5071919;28;20312;-77
2021/05/29 10:44:29;;;;;;;14.17;10.53;;;;;;;11.88;69.60;101914.72;5066931;28;20225;-78
2021/05/29 10:47:18;;;;;;;15.17;10.23;;;;;;;11.91;69.68;101907.44;5066051;28;20293;-78
2021/05/29 10:49:58;;;;;;;14.87;10.30;;;;;;;11.98;69.30;101902.69;5064840;28;20670;-77
2021/05/29 10:52:58;;;;;;;12.03;9.20;;;;;;;12.04;69.09;101899.69;5063059;28;20197;-79
2021/05/29 10:55:28;;;;;;;14.90;9.20;;;;;;;12.11;69.05;101906.47;5009545;28;20238;-78
2021/05/29 10:58:00;;;;;;;13.07;10.03;;;;;;;12.16;69.15;101902.63;5009719;28;20207;-78
2021/05/29 11:00:51;;;;;;;13.73;11.13;;;;;;;12.23;68.78;101900.50;5039178;28;20222;-78
2021/05/29 11:03:27;;;;;;;14.10;10.60;;;;;;;12.27;68.33;101904.75;5067392;28;20320;-78
2021/05/29 11:05:59;;;;;;;13.37;10.83;;;;;;;12.30;68.07;101909.94;5071020;28;20264;-79
2021/05/29 11:08:44;;;;;;;14.60;10.03;;;;;;;12.32;68.07;101900.06;5069658;28;20264;-79
2021/05/29 11:11:48;;;;;;;13.47;10.33;;;;;;;12.35;67.65;101907.91;5067104;28;20219;-78
2021/05/29 11:14:16;;;;;;;12.77;9.43;;;;;;;12.37;67.55;101902.47;5069808;28;20226;-79
2021/05/29 11:17:21;;;;;;;13.50;10.67;;;;;;;12.37;67.22;101915.81;5065626;28;20706;-79
2021/05/29 11:20:04;;;;;;;16.80;11.60;;;;;;;12.38;67.12;101914.88;5062948;28;20203;-79
2021/05/29 11:22:39;;;;;;;17.23;11.37;;;;;;;12.38;66.96;101915.75;5069864;28;20200;-79
2021/05/29 11:25:07;;;;;;;15.63;11.33;;;;;;;12.40;66.86;101903.19;5076677;28;20314;-78
2021/05/29 11:27:34;;;;;;;15.33;11.53;;;;;;;12.42;66.96;101906.66;5069677;28;20212;-78
2021/05/29 11:30:04;;;;;;;14.40;12.07;;;;;;;12.44;66.93;101902.09;5075261;28;20263;-79